Terminal Aerodrome Forecast
Issued by NWS

Home | Current Version | Previous Version | Text Only | Print | Product List | Glossary On
Versions: 1 2 3 4 5 6 7 8 9 10 11 12 13 14 15 16 17 18 19
000
FTUS42 KJAX 301139
TAFCRG
TAF
KCRG 301139Z 3012/0112 VRB03KT 3SM BR SCT005 SCT250
     FM301300 14010KT P6SM BKN250
     FM301900 12012G16KT P6SM SCT040 SCT250
     FM010300 15005KT 5SM BR SCT040 SCT250=

USA.gov is the U.S. government's official web portal to all federal, state and local government web resources and services.